Time;durP1;ratioP1;P1;durP2;ratioP2;P2;SDS_P1;SDS_P2;PMS_P1;PMS_P2;Temp;Humidity;BMP_temperature;BMP_pressure;BME280_temperature;BME280_humidity;BME280_pressure;Samples;Min_cycle;Max_cycle;Signal;HPM_P1;HPM_P2
2021/01/08 00:02:40;;;;;;;1.90;1.50;;;;;;;5.56;72.62;99824.33;1673885;85;21223;-55
2021/01/08 00:05:47;;;;;;;4.10;1.90;;;;;;;5.53;72.37;99828.72;1680322;85;21228;-56
2021/01/08 00:08:52;;;;;;;1.85;1.52;;;;;;;5.51;72.43;99836.16;1680464;85;21237;-55
2021/01/08 00:12:04;;;;;;;3.30;1.77;;;;;;;5.49;72.44;99836.81;1680379;85;21714;-55
2021/01/08 00:15:15;;;;;;;2.02;1.70;;;;;;;5.47;72.49;99847.83;1681203;82;21821;-55
2021/01/08 00:18:22;;;;;;;2.87;1.82;;;;;;;5.49;72.34;99849.03;1693164;83;21228;-54
2021/01/08 00:21:27;;;;;;;1.77;1.60;;;;;;;5.48;72.21;99859.55;1692856;85;21375;-55
2021/01/08 00:24:33;;;;;;;2.17;1.57;;;;;;;5.46;71.50;99864.27;1692791;85;21432;-55
2021/01/08 00:27:39;;;;;;;3.00;1.90;;;;;;;5.42;71.52;99870.51;1692635;83;21753;-54
2021/01/08 00:30:46;;;;;;;4.65;2.50;;;;;;;5.41;71.83;99867.95;1723089;83;21221;-54
2021/01/08 00:33:55;;;;;;;2.67;2.40;;;;;;;5.42;72.05;99873.75;1693245;84;21255;-54
2021/01/08 00:37:03;;;;;;;3.17;2.77;;;;;;;5.40;72.17;99877.11;1692651;85;21362;-54
2021/01/08 00:40:08;;;;;;;4.03;2.22;;;;;;;5.37;72.38;99887.79;1692731;85;21883;-55
2021/01/08 00:43:15;;;;;;;3.30;2.52;;;;;;;5.39;72.64;99890.34;1692805;85;22065;-54
2021/01/08 00:46:20;;;;;;;3.70;2.75;;;;;;;5.38;72.56;99889.48;1725562;83;21294;-54
2021/01/08 00:49:25;;;;;;;3.45;2.70;;;;;;;5.38;72.69;99889.98;1693419;85;21832;-54
2021/01/08 00:52:31;;;;;;;3.62;2.25;;;;;;;5.36;72.71;99892.84;1692799;85;21212;-54
2021/01/08 00:55:37;;;;;;;2.65;2.22;;;;;;;5.36;72.46;99909.13;1690823;85;21245;-54
2021/01/08 00:58:45;;;;;;;3.35;2.50;;;;;;;5.32;72.30;99895.53;1691600;82;21354;-54
2021/01/08 01:01:52;;;;;;;3.15;2.62;;;;;;;5.28;72.44;99904.14;1691227;83;21232;-53
2021/01/08 01:04:58;;;;;;;3.42;2.30;;;;;;;5.27;72.62;99903.77;1696402;83;21239;-54
2021/01/08 01:08:04;;;;;;;3.98;2.45;;;;;;;5.25;72.66;99892.25;1718167;83;21216;-54
2021/01/08 01:11:11;;;;;;;2.98;2.20;;;;;;;5.23;72.69;99899.68;1717546;83;21597;-54
2021/01/08 01:14:17;;;;;;;3.60;2.20;;;;;;;5.23;72.83;99907.29;1717525;83;21835;-55
2021/01/08 01:17:22;;;;;;;4.05;2.30;;;;;;;5.25;72.83;99916.66;1719199;82;21350;-54
2021/01/08 01:20:28;;;;;;;2.52;2.10;;;;;;;5.24;72.68;99906.80;1727341;83;21208;-55
2021/01/08 01:23:34;;;;;;;2.95;1.92;;;;;;;5.23;72.81;99916.79;1727499;83;21409;-54
2021/01/08 01:26:41;;;;;;;2.83;2.15;;;;;;;5.25;72.67;99913.95;1727790;83;21274;-54
2021/01/08 01:29:47;;;;;;;2.95;2.08;;;;;;;5.28;72.63;99906.86;1728105;83;21324;-55
2021/01/08 01:32:53;;;;;;;3.20;2.10;;;;;;;5.31;72.58;99913.33;1727337;83;21260;-54
2021/01/08 01:36:00;;;;;;;1.60;1.50;;;;;;;5.31;72.51;99912.80;1726849;83;21393;-55
2021/01/08 01:39:06;;;;;;;2.60;1.50;;;;;;;5.29;72.27;99912.63;1727734;83;21239;-54
2021/01/08 01:42:13;;;;;;;2.20;1.50;;;;;;;5.26;71.96;99919.22;1713165;83;21224;-54
2021/01/08 01:45:19;;;;;;;2.17;1.90;;;;;;;5.24;71.18;99920.36;1727453;83;21224;-54
2021/01/08 01:48:26;;;;;;;2.70;1.80;;;;;;;5.21;71.27;99938.31;1726406;83;21401;-54
2021/01/08 01:51:33;;;;;;;3.55;2.05;;;;;;;5.20;71.29;99935.26;1727740;83;21389;-55
2021/01/08 01:54:41;;;;;;;1.65;1.50;;;;;;;5.18;71.11;99935.91;1727813;83;21232;-54
2021/01/08 01:57:48;;;;;;;2.17;1.85;;;;;;;5.17;71.19;99932.85;1727033;83;21369;-53
2021/01/08 02:00:54;;;;;;;2.65;2.00;;;;;;;5.20;71.25;99944.23;1727759;83;21370;-54
2021/01/08 02:04:04;;;;;;;2.90;2.37;;;;;;;5.25;71.25;99941.09;1727746;83;21235;-54
2021/01/08 02:07:10;;;;;;;4.55;2.70;;;;;;;5.26;71.44;99945.49;1726767;83;21207;-55
2021/01/08 02:10:16;;;;;;;2.60;2.22;;;;;;;5.27;71.38;99955.33;1727914;83;21358;-54
2021/01/08 02:13:29;;;;;;;2.65;2.40;;;;;;;5.25;70.82;99969.58;1727854;83;21791;-54
2021/01/08 02:16:41;;;;;;;2.83;2.15;;;;;;;5.20;70.32;99974.07;1727057;83;21259;-55
2021/01/08 02:19:57;;;;;;;2.37;2.17;;;;;;;5.16;70.11;99984.03;1709793;83;21239;-55
2021/01/08 02:23:21;;;;;;;2.77;2.20;;;;;;;5.12;70.41;99983.47;1717600;83;21192;-54
2021/01/08 02:26:28;;;;;;;2.80;2.45;;;;;;;5.13;70.75;100008.75;1717643;83;21350;-54
2021/01/08 02:29:34;;;;;;;4.60;2.90;;;;;;;5.15;70.92;100019.82;1711530;83;21451;-55
2021/01/08 02:32:40;;;;;;;7.15;4.65;;;;;;;5.17;70.79;100022.38;1711370;83;21198;-55
2021/01/08 02:35:46;;;;;;;5.33;3.98;;;;;;;5.15;70.49;100027.96;1712563;83;21355;-55
2021/01/08 02:38:58;;;;;;;3.87;2.92;;;;;;;5.11;70.64;100018.39;1712065;84;21387;-54
2021/01/08 02:42:04;;;;;;;4.00;2.85;;;;;;;5.08;70.68;100027.33;1711751;83;21333;-54
2021/01/08 02:45:11;;;;;;;4.67;3.27;;;;;;;5.07;70.90;100029.70;1712355;84;21232;-54
2021/01/08 02:48:16;;;;;;;3.72;2.80;;;;;;;5.11;70.99;100027.02;1712460;83;21279;-55
2021/01/08 02:51:22;;;;;;;3.00;2.70;;;;;;;5.14;70.82;100037.61;1712785;83;21355;-54
2021/01/08 02:54:28;;;;;;;3.00;2.35;;;;;;;5.12;70.12;100039.61;1712360;84;21240;-55
2021/01/08 02:57:33;;;;;;;3.83;2.42;;;;;;;5.08;69.54;100035.47;1712491;84;21248;-54
2021/01/08 03:00:40;;;;;;;3.35;2.62;;;;;;;5.06;69.28;100046.99;1712359;83;21777;-55
2021/01/08 03:03:47;;;;;;;3.47;2.83;;;;;;;5.04;69.51;100062.06;1712622;83;21449;-55
2021/01/08 03:06:53;;;;;;;2.92;2.12;;;;;;;5.03;69.72;100057.62;1712682;83;21232;-55
2021/01/08 03:09:58;;;;;;;2.33;2.02;;;;;;;5.04;69.93;100066.63;1696870;83;21835;-54
2021/01/08 03:13:10;;;;;;;3.45;2.60;;;;;;;5.06;70.09;100063.27;1712235;84;21237;-54
2021/01/08 03:16:16;;;;;;;4.90;2.70;;;;;;;5.08;70.28;100068.88;1712454;84;21391;-55
2021/01/08 03:19:25;;;;;;;4.75;3.40;;;;;;;5.12;70.44;100078.94;1711275;83;21220;-55
2021/01/08 03:22:30;;;;;;;4.30;3.10;;;;;;;5.15;70.60;100067.79;1711821;84;21275;-56
2021/01/08 03:25:36;;;;;;;5.30;3.65;;;;;;;5.18;70.64;100083.77;1712139;83;21761;-55
2021/01/08 03:28:43;;;;;;;5.15;3.45;;;;;;;5.18;70.81;100094.63;1712799;83;21212;-54
2021/01/08 03:31:49;;;;;;;6.17;4.67;;;;;;;5.21;70.99;100073.47;1712549;83;21220;-54
2021/01/08 03:34:55;;;;;;;5.95;4.65;;;;;;;5.30;71.08;100074.42;1712211;83;21733;-54
2021/01/08 03:38:00;;;;;;;8.90;6.45;;;;;;;5.34;70.98;100084.85;1711881;83;21228;-55
2021/01/08 03:41:05;;;;;;;9.35;6.87;;;;;;;5.37;70.97;100083.19;1712107;83;21406;-55
2021/01/08 03:44:12;;;;;;;7.55;5.72;;;;;;;5.36;71.03;100084.70;1711782;83;21298;-55
2021/01/08 03:47:19;;;;;;;6.67;5.95;;;;;;;5.37;70.88;100088.62;1712381;83;21228;-54
2021/01/08 03:50:24;;;;;;;8.35;6.42;;;;;;;5.35;70.81;100099.25;1712362;84;21177;-54
2021/01/08 03:53:30;;;;;;;7.65;6.65;;;;;;;5.33;70.85;100099.89;1712360;83;21668;-54
2021/01/08 03:56:36;;;;;;;8.68;6.45;;;;;;;5.32;70.68;100113.12;1711213;83;21223;-54
2021/01/08 03:59:42;;;;;;;7.67;6.40;;;;;;;5.30;70.87;100098.34;1712058;83;21263;-54
2021/01/08 04:02:47;;;;;;;7.30;6.53;;;;;;;5.28;71.01;100091.37;1711583;83;21244;-54
2021/01/08 04:05:53;;;;;;;8.65;6.58;;;;;;;5.27;71.21;100108.64;1712527;83;21375;-54
2021/01/08 04:08:59;;;;;;;7.37;6.30;;;;;;;5.28;71.28;100104.41;1712277;83;21328;-55
2021/01/08 04:12:05;;;;;;;8.03;6.97;;;;;;;5.31;71.37;100109.55;1712446;84;21279;-54
2021/01/08 04:15:11;;;;;;;7.58;5.95;;;;;;;5.28;71.46;100107.66;1712727;83;21389;-53
2021/01/08 04:18:16;;;;;;;6.97;5.92;;;;;;;5.27;71.37;100112.70;1711989;83;21247;-54
2021/01/08 04:21:23;;;;;;;5.80;4.87;;;;;;;5.23;71.02;100106.72;1709840;82;21240;-53
2021/01/08 04:24:29;;;;;;;5.08;4.15;;;;;;;5.25;70.42;100133.20;1707597;83;21271;-54
2021/01/08 04:27:35;;;;;;;4.85;3.83;;;;;;;5.21;69.16;100127.74;1727423;83;21377;-54
2021/01/08 04:30:40;;;;;;;4.58;3.75;;;;;;;5.19;68.55;100153.30;1727908;83;21215;-54
2021/01/08 04:33:46;;;;;;;3.27;2.72;;;;;;;5.14;67.69;100150.19;1727079;83;21393;-55
2021/01/08 04:36:55;;;;;;;3.17;2.60;;;;;;;5.12;67.32;100127.77;1727685;83;21363;-54
2021/01/08 04:40:00;;;;;;;4.40;3.25;;;;;;;5.10;67.00;100129.28;1727671;83;21321;-55
2021/01/08 04:43:06;;;;;;;3.72;3.12;;;;;;;5.09;66.62;100141.11;1727551;83;21361;-55
2021/01/08 04:46:35;;;;;;;3.10;2.70;;;;;;;5.09;66.59;100145.19;1727734;83;21365;-54
2021/01/08 04:49:41;;;;;;;4.15;3.00;;;;;;;5.07;66.56;100144.98;1726695;83;21398;-54
2021/01/08 04:52:46;;;;;;;3.90;3.08;;;;;;;5.08;66.62;100153.47;1726536;83;21341;-54
2021/01/08 04:55:52;;;;;;;5.60;4.15;;;;;;;5.12;66.83;100158.97;1726519;83;21861;-54
2021/01/08 04:58:57;;;;;;;5.47;4.58;;;;;;;5.16;67.17;100156.30;1727319;83;21390;-55
2021/01/08 05:02:04;;;;;;;6.87;5.03;;;;;;;5.19;67.56;100149.22;1726873;82;21370;-54
2021/01/08 05:05:12;;;;;;;8.00;5.85;;;;;;;5.20;67.77;100157.73;1727864;83;21204;-54
2021/01/08 05:08:18;;;;;;;10.85;7.65;;;;;;;5.19;68.14;100162.30;1727287;83;21408;-55
2021/01/08 05:11:31;;;;;;;9.80;7.72;;;;;;;5.20;68.66;100168.06;1727346;83;21204;-55
2021/01/08 05:14:36;;;;;;;13.28;9.13;;;;;;;5.22;69.04;100162.49;1727694;83;21472;-54
2021/01/08 05:17:43;;;;;;;11.45;9.33;;;;;;;5.24;69.33;100165.92;1712342;84;21200;-54
2021/01/08 05:20:49;;;;;;;13.93;9.53;;;;;;;5.23;69.50;100171.84;1727664;83;21430;-55
2021/01/08 05:23:56;;;;;;;11.22;8.25;;;;;;;5.24;69.59;100179.00;1712331;83;21658;-55
2021/01/08 05:27:01;;;;;;;11.73;8.25;;;;;;;5.22;69.43;100181.48;1711833;83;21392;-55
2021/01/08 05:30:28;;;;;;;10.63;7.92;;;;;;;5.19;69.36;100170.92;1711672;83;21252;-54
2021/01/08 05:33:34;;;;;;;12.63;8.08;;;;;;;5.16;69.15;100170.73;1711861;84;21244;-54
2021/01/08 05:36:39;;;;;;;10.35;8.25;;;;;;;5.16;69.07;100178.88;1696530;84;21829;-54
2021/01/08 05:39:44;;;;;;;13.13;9.18;;;;;;;5.17;69.02;100181.09;1712280;83;21295;-54
2021/01/08 05:43:08;;;;;;;11.20;8.18;;;;;;;5.17;68.95;100174.31;1695788;83;21236;-55
2021/01/08 05:46:26;;;;;;;9.23;7.83;;;;;;;5.15;68.73;100181.73;1712142;84;21713;-54
2021/01/08 05:49:31;;;;;;;12.28;8.00;;;;;;;5.13;68.69;100178.30;1709513;83;21220;-54
2021/01/08 05:52:35;;;;;;;11.25;8.33;;;;;;;5.13;68.36;100183.23;1711953;84;21207;-54
2021/01/08 05:55:49;;;;;;;10.30;7.75;;;;;;;5.10;68.23;100190.80;1712165;84;21974;-54
2021/01/08 05:58:56;;;;;;;11.38;8.48;;;;;;;5.07;68.19;100191.11;1701045;83;21292;-54
2021/01/08 06:02:04;;;;;;;11.65;8.38;;;;;;;5.08;68.11;100196.38;1712271;83;21737;-53
2021/01/08 06:05:18;;;;;;;11.05;7.72;;;;;;;5.06;67.93;100182.09;1713780;83;21356;-54
2021/01/08 06:08:24;;;;;;;11.15;7.80;;;;;;;5.06;67.73;100190.77;1712851;84;21410;-55
2021/01/08 06:11:39;;;;;;;12.47;9.23;;;;;;;5.09;67.83;100202.67;1695140;83;21382;-55
2021/01/08 06:14:43;;;;;;;12.75;9.33;;;;;;;5.10;67.75;100205.73;1712301;83;21294;-55
2021/01/08 06:17:51;;;;;;;12.82;8.70;;;;;;;5.09;67.68;100203.50;1696909;83;21208;-55
2021/01/08 06:21:01;;;;;;;11.53;7.85;;;;;;;5.10;67.52;100200.30;1712250;84;21267;-54
2021/01/08 06:24:07;;;;;;;14.95;10.38;;;;;;;5.12;67.57;100207.80;1713654;82;21358;-54
2021/01/08 06:27:15;;;;;;;14.80;10.23;;;;;;;5.16;67.46;100224.13;1713787;83;21367;-54
2021/01/08 06:30:26;;;;;;;12.58;8.90;;;;;;;5.20;67.27;100218.27;1714141;83;21362;-54
2021/01/08 06:33:31;;;;;;;13.25;9.60;;;;;;;5.21;67.27;100228.62;1714852;83;21336;-54
2021/01/08 06:36:39;;;;;;;14.25;9.70;;;;;;;5.22;67.23;100239.83;1714924;83;21188;-54
2021/01/08 06:39:50;;;;;;;12.78;9.28;;;;;;;5.18;67.14;100247.42;1714544;83;21742;-54
2021/01/08 06:42:55;;;;;;;15.53;9.90;;;;;;;5.17;67.11;100259.25;1714604;83;21287;-53
2021/01/08 06:46:04;;;;;;;14.23;10.28;;;;;;;5.19;67.27;100260.47;1714649;83;21215;-54
2021/01/08 06:49:16;;;;;;;17.05;11.93;;;;;;;5.20;67.21;100258.96;1712849;83;21416;-54
2021/01/08 06:52:25;;;;;;;14.10;10.60;;;;;;;5.23;67.21;100261.38;1713393;83;21706;-55
2021/01/08 06:55:31;;;;;;;17.85;11.45;;;;;;;5.25;67.14;100273.48;1713601;83;21231;-55
2021/01/08 06:58:37;;;;;;;17.87;12.07;;;;;;;5.26;67.04;100276.54;1714765;83;21784;-54
2021/01/08 07:02:08;;;;;;;19.02;12.58;;;;;;;5.26;67.22;100284.19;1713185;83;21226;-55
2021/01/08 07:05:17;;;;;;;20.25;14.15;;;;;;;5.30;67.20;100293.73;1659461;85;21299;-55
2021/01/08 07:08:23;;;;;;;17.57;11.43;;;;;;;5.34;67.23;100301.97;1686324;83;21409;-55
2021/01/08 07:11:32;;;;;;;18.00;11.90;;;;;;;5.37;67.17;100306.23;1686183;85;21235;-55
2021/01/08 07:14:38;;;;;;;21.40;12.40;;;;;;;5.39;66.99;100320.53;1686351;83;21236;-56
2021/01/08 07:17:47;;;;;;;18.98;12.60;;;;;;;5.37;66.94;100318.45;1686352;83;21220;-54
2021/01/08 07:21:00;;;;;;;19.12;12.13;;;;;;;5.39;66.82;100330.02;1686300;85;21784;-55
2021/01/08 07:24:09;;;;;;;19.98;12.15;;;;;;;5.40;66.63;100330.37;1687251;82;21262;-54
2021/01/08 07:27:28;;;;;;;18.75;12.80;;;;;;;5.40;66.51;100343.45;1672022;84;21227;-54
2021/01/08 07:30:34;;;;;;;23.07;14.33;;;;;;;5.41;66.42;100347.00;1688883;84;21239;-55
2021/01/08 07:33:39;;;;;;;20.50;12.65;;;;;;;5.43;66.43;100359.45;1688938;83;21871;-55
2021/01/08 07:36:45;;;;;;;20.08;12.18;;;;;;;5.45;66.08;100367.45;1688636;84;21757;-56
2021/01/08 07:39:51;;;;;;;15.90;11.10;;;;;;;5.47;65.99;100365.45;1688872;83;21736;-56
2021/01/08 07:43:15;;;;;;;15.68;10.90;;;;;;;5.50;65.76;100363.80;1688831;83;21369;-55
2021/01/08 07:46:22;;;;;;;19.12;12.30;;;;;;;5.51;65.67;100369.58;1689262;84;22043;-55
2021/01/08 07:49:34;;;;;;;18.35;11.65;;;;;;;5.53;65.33;100379.31;1672868;84;21248;-54
2021/01/08 07:52:51;;;;;;;21.35;13.05;;;;;;;5.47;64.62;100374.43;1688572;83;21740;-54
2021/01/08 07:55:56;;;;;;;17.62;11.73;;;;;;;5.41;64.90;100382.28;1689048;84;21769;-54
2021/01/08 07:59:11;;;;;;;21.55;12.55;;;;;;;5.35;65.23;100388.29;1673134;84;21830;-55
2021/01/08 08:02:16;;;;;;;19.87;13.45;;;;;;;5.32;65.62;100396.72;1689314;84;21231;-55
2021/01/08 08:05:22;;;;;;;30.88;17.55;;;;;;;5.36;65.86;100404.95;1688627;84;21678;-54
2021/01/08 08:08:27;;;;;;;23.25;14.98;;;;;;;5.36;65.97;100416.65;1688775;83;21283;-55
2021/01/08 08:11:37;;;;;;;25.57;16.77;;;;;;;5.37;65.86;100404.81;1689240;84;21267;-55
2021/01/08 08:14:41;;;;;;;22.45;14.75;;;;;;;5.38;66.13;100405.64;1673049;84;21256;-55
2021/01/08 08:17:47;;;;;;;21.62;13.95;;;;;;;5.42;65.96;100411.16;1689379;83;21235;-56
2021/01/08 08:20:53;;;;;;;20.65;13.68;;;;;;;5.43;65.82;100415.09;1689216;84;21227;-56
2021/01/08 08:24:07;;;;;;;19.40;13.28;;;;;;;5.45;65.89;100409.03;1689366;83;21816;-55
2021/01/08 08:27:13;;;;;;;22.85;14.30;;;;;;;5.49;65.30;100413.65;1688883;85;21255;-55
2021/01/08 08:30:22;;;;;;;24.25;15.58;;;;;;;5.44;65.41;100418.67;1688410;85;21271;-55
2021/01/08 08:33:28;;;;;;;26.62;16.35;;;;;;;5.45;65.88;100428.52;1689858;83;21223;-55
2021/01/08 08:36:34;;;;;;;25.70;16.07;;;;;;;5.46;66.07;100428.38;1689063;83;21788;-55
2021/01/08 08:39:41;;;;;;;24.70;16.65;;;;;;;5.50;66.08;100435.74;1688855;83;21307;-54
2021/01/08 08:42:48;;;;;;;25.20;16.07;;;;;;;5.56;65.93;100421.10;1688324;83;21235;-56
2021/01/08 08:45:53;;;;;;;26.27;16.60;;;;;;;5.71;65.89;100428.28;1709718;83;21805;-56
2021/01/08 08:49:02;;;;;;;24.18;15.10;;;;;;;5.82;65.47;100418.17;1712169;83;21235;-55
2021/01/08 08:52:07;;;;;;;23.50;14.85;;;;;;;5.88;64.97;100414.03;1683421;84;21411;-56
2021/01/08 08:55:14;;;;;;;24.55;15.65;;;;;;;5.86;64.63;100430.97;1693203;84;21255;-56
2021/01/08 08:58:20;;;;;;;29.32;17.87;;;;;;;5.82;64.81;100430.88;1689093;83;21817;-55
2021/01/08 09:01:25;;;;;;;25.45;16.25;;;;;;;5.85;65.07;100423.31;1685062;84;21182;-56
2021/01/08 09:04:31;;;;;;;28.92;17.12;;;;;;;5.94;65.22;100426.53;1685061;84;21371;-55
2021/01/08 09:08:02;;;;;;;24.50;14.50;;;;;;;6.10;65.11;100428.64;1653534;86;21288;-55
2021/01/08 09:11:24;;;;;;;23.75;16.35;;;;;;;6.27;64.26;100424.30;1690336;84;21355;-55
2021/01/08 09:14:29;;;;;;;26.95;16.85;;;;;;;6.33;63.61;100425.92;1679770;85;21261;-54
2021/01/08 09:17:38;;;;;;;25.15;16.10;;;;;;;6.37;63.65;100436.87;1717725;83;22096;-54
2021/01/08 09:20:47;;;;;;;28.17;17.23;;;;;;;6.32;63.59;100426.94;1715557;83;21220;-55
2021/01/08 09:23:54;;;;;;;30.92;20.12;;;;;;;6.33;63.84;100427.28;1714099;82;21234;-55
2021/01/08 09:26:59;;;;;;;28.57;16.90;;;;;;;6.36;64.08;100420.19;1707852;83;21243;-54
2021/01/08 09:30:16;;;;;;;31.62;17.75;;;;;;;6.38;64.35;100426.34;1710996;83;21396;-55
2021/01/08 09:33:21;;;;;;;27.55;17.77;;;;;;;6.40;64.37;100425.70;1686315;83;21253;-55
2021/01/08 09:36:28;;;;;;;28.65;17.55;;;;;;;6.41;64.67;100424.69;1683472;84;21256;-55
2021/01/08 09:39:38;;;;;;;28.00;17.62;;;;;;;6.44;64.45;100431.18;1652868;85;21890;-54
2021/01/08 09:42:44;;;;;;;31.50;18.80;;;;;;;6.37;63.75;100437.36;1683988;84;21386;-55
2021/01/08 09:45:50;;;;;;;34.65;19.92;;;;;;;6.28;63.74;100425.50;1683710;85;21386;-55
2021/01/08 09:48:56;;;;;;;32.95;19.00;;;;;;;6.28;63.87;100424.14;1711195;83;21255;-56
2021/01/08 09:52:10;;;;;;;32.03;18.50;;;;;;;6.35;63.57;100420.34;1712527;83;21224;-55
2021/01/08 09:55:17;;;;;;;30.02;17.98;;;;;;;6.39;63.59;100424.48;1710480;83;21557;-55
2021/01/08 09:58:22;;;;;;;31.25;19.45;;;;;;;6.42;63.70;100437.30;1695116;83;21213;-56
2021/01/08 10:01:27;;;;;;;30.35;19.48;;;;;;;6.42;63.73;100434.57;1695453;83;21271;-56
2021/01/08 10:04:37;;;;;;;53.60;30.10;;;;;;;6.42;63.80;100437.30;1686185;83;21214;-53
2021/01/08 10:07:48;;;;;;;32.98;20.88;;;;;;;6.39;63.77;100448.43;1689691;84;21240;-55
2021/01/08 10:10:53;;;;;;;30.82;19.27;;;;;;;6.28;63.66;100448.61;1710397;84;21308;-56
2021/01/08 10:14:14;;;;;;;31.52;17.67;;;;;;;6.16;63.72;100457.08;1710184;83;21766;-57
2021/01/08 10:17:27;;;;;;;29.48;18.25;;;;;;;6.10;63.89;100450.39;1710346;83;21228;-56
2021/01/08 10:20:32;;;;;;;28.35;18.42;;;;;;;6.09;63.90;100451.37;1710471;83;21267;-56
2021/01/08 10:23:49;;;;;;;29.63;17.62;;;;;;;6.10;63.91;100451.75;1694568;83;21284;-56
2021/01/08 10:26:54;;;;;;;29.23;17.35;;;;;;;6.10;63.92;100444.95;1695016;81;21217;-55
2021/01/08 10:30:03;;;;;;;31.73;18.15;;;;;;;6.10;63.77;100441.70;1685038;84;21224;-56
2021/01/08 10:33:10;;;;;;;26.23;16.48;;;;;;;6.06;63.97;100438.94;1686169;82;21382;-56
2021/01/08 10:36:15;;;;;;;26.87;17.07;;;;;;;6.03;63.92;100434.30;1707005;84;21268;-56
2021/01/08 10:39:22;;;;;;;28.42;17.32;;;;;;;5.98;64.11;100436.09;1684601;84;21204;-55
2021/01/08 10:42:30;;;;;;;28.95;18.48;;;;;;;5.97;64.35;100444.39;1687422;84;21320;-55
2021/01/08 10:45:36;;;;;;;24.35;16.62;;;;;;;5.98;64.39;100432.52;1719711;83;21892;-56
2021/01/08 10:48:43;;;;;;;27.05;17.35;;;;;;;6.03;64.41;100445.16;1705754;82;21264;-56
2021/01/08 10:51:49;;;;;;;30.50;19.05;;;;;;;6.08;64.36;100439.66;1688705;83;21426;-55
2021/01/08 10:55:01;;;;;;;29.27;17.15;;;;;;;6.19;64.40;100430.96;1658297;86;21264;-55
2021/01/08 10:58:06;;;;;;;29.80;17.73;;;;;;;6.27;63.80;100444.19;1682904;85;21269;-55
2021/01/08 11:01:12;;;;;;;28.25;17.73;;;;;;;6.31;63.74;100448.84;1719532;83;21601;-56
2021/01/08 11:04:16;;;;;;;27.22;17.15;;;;;;;6.36;63.50;100441.94;1716243;82;21414;-55
2021/01/08 11:07:22;;;;;;;26.75;16.93;;;;;;;6.36;62.38;100446.02;1707940;83;21342;-55
2021/01/08 11:10:29;;;;;;;24.45;15.58;;;;;;;6.34;62.08;100445.33;1708671;82;21293;-55
2021/01/08 11:13:35;;;;;;;26.15;15.98;;;;;;;6.38;61.57;100438.58;1715255;83;21300;-55
2021/01/08 11:16:41;;;;;;;22.98;14.35;;;;;;;6.39;61.28;100438.08;1714989;83;21374;-54
2021/01/08 11:19:47;;;;;;;22.93;14.30;;;;;;;6.40;61.58;100447.94;1713656;82;21375;-55
2021/01/08 11:22:54;;;;;;;20.57;14.78;;;;;;;6.36;61.44;100440.58;1714527;83;21212;-54
2021/01/08 11:26:00;;;;;;;23.77;14.83;;;;;;;6.35;61.67;100438.88;1704225;83;21847;-55
2021/01/08 11:29:07;;;;;;;22.05;13.38;;;;;;;6.35;61.91;100440.23;1716874;82;21232;-56
2021/01/08 11:32:16;;;;;;;21.12;14.00;;;;;;;6.41;61.99;100439.63;1685944;84;21362;-56
2021/01/08 11:35:22;;;;;;;19.23;12.40;;;;;;;6.45;61.54;100439.71;1716156;83;21346;-56
2021/01/08 11:38:27;;;;;;;21.07;13.88;;;;;;;6.48;61.01;100431.75;1715851;83;21414;-56
2021/01/08 11:41:34;;;;;;;20.17;12.35;;;;;;;6.53;60.87;100441.19;1685709;85;21300;-56
2021/01/08 11:44:42;;;;;;;22.07;13.60;;;;;;;6.58;60.66;100436.66;1716396;83;21907;-56
2021/01/08 11:47:47;;;;;;;18.12;10.38;;;;;;;6.58;60.53;100434.77;1716811;83;21334;-56
2021/01/08 11:50:51;;;;;;;16.50;11.10;;;;;;;6.52;60.18;100439.95;1717019;83;21354;-56
2021/01/08 11:53:58;;;;;;;17.52;11.30;;;;;;;6.43;60.02;100429.48;1697354;83;21339;-55
2021/01/08 11:57:04;;;;;;;19.05;12.68;;;;;;;6.40;59.80;100432.98;1714346;83;21625;-56
2021/01/08 12:00:09;;;;;;;15.98;10.20;;;;;;;6.34;59.75;100434.45;1686037;84;21210;-55
2021/01/08 12:03:14;;;;;;;16.73;10.30;;;;;;;6.30;59.87;100442.53;1686607;83;21202;-55
2021/01/08 12:06:19;;;;;;;17.32;10.08;;;;;;;6.28;59.97;100451.33;1686329;85;21190;-56
2021/01/08 12:09:24;;;;;;;15.60;9.98;;;;;;;6.26;59.95;100444.34;1686724;83;21798;-56
2021/01/08 12:12:33;;;;;;;16.70;11.12;;;;;;;6.25;60.24;100444.83;1660961;86;21205;-55
2021/01/08 12:15:38;;;;;;;20.37;13.28;;;;;;;6.23;60.38;100451.43;1711556;83;21205;-56
2021/01/08 12:18:44;;;;;;;21.95;14.47;;;;;;;6.20;60.74;100451.20;1709946;83;21244;-56
2021/01/08 12:21:56;;;;;;;24.98;15.35;;;;;;;6.19;60.82;100444.06;1709826;83;21263;-55
2021/01/08 12:25:03;;;;;;;;;;;;;;;6.24;61.25;100449.92;1689758;84;21202;-55
2021/01/08 12:28:10;;;;;;;26.05;16.10;;;;;;;6.32;61.26;100441.89;1686574;83;20602;-54
2021/01/08 12:31:15;;;;;;;29.10;17.52;;;;;;;6.33;61.10;100451.75;1694098;83;21317;-56
2021/01/08 12:34:20;;;;;;;29.32;18.20;;;;;;;6.34;61.09;100452.12;1688569;84;21284;-54
2021/01/08 12:37:25;;;;;;;28.83;18.67;;;;;;;6.36;61.16;100454.69;1727104;83;21614;-55
2021/01/08 12:40:31;;;;;;;29.80;19.02;;;;;;;6.37;61.09;100457.27;1726257;83;21204;-54
2021/01/08 12:43:38;;;;;;;28.00;17.95;;;;;;;6.32;60.96;100458.20;1726216;83;21931;-55
2021/01/08 12:46:45;;;;;;;31.93;20.17;;;;;;;6.24;60.79;100463.52;1725549;83;21375;-56
2021/01/08 12:49:52;;;;;;;23.90;16.23;;;;;;;6.19;60.92;100462.22;1725718;83;21385;-56
2021/01/08 12:52:58;;;;;;;27.82;17.35;;;;;;;6.19;61.08;100464.45;1725564;83;21721;-55
2021/01/08 12:56:04;;;;;;;24.43;16.67;;;;;;;6.20;61.04;100467.51;1725947;83;21374;-55
2021/01/08 12:59:13;;;;;;;26.07;15.32;;;;;;;6.18;61.00;100466.83;1726709;81;21437;-56
2021/01/08 13:02:18;;;;;;;24.95;15.98;;;;;;;6.14;61.02;100478.97;1720171;83;21224;-55
2021/01/08 13:05:24;;;;;;;26.27;16.82;;;;;;;6.13;61.12;100470.96;1689441;85;21239;-56
2021/01/08 13:08:30;;;;;;;27.65;18.27;;;;;;;6.10;61.23;100471.60;1727516;83;21389;-55
2021/01/08 13:11:36;;;;;;;24.43;16.17;;;;;;;6.12;61.30;100470.63;1727470;82;21231;-55
2021/01/08 13:14:41;;;;;;;25.10;17.55;;;;;;;6.10;61.36;100463.97;1726506;83;21425;-55
2021/01/08 13:17:48;;;;;;;26.30;17.48;;;;;;;6.07;61.47;100458.83;1699596;83;21788;-55
2021/01/08 13:20:53;;;;;;;26.85;18.23;;;;;;;6.07;61.59;100466.46;1713815;83;21390;-55
2021/01/08 13:24:02;;;;;;;23.18;15.23;;;;;;;6.01;61.55;100475.69;1718416;81;21370;-55
2021/01/08 13:27:08;;;;;;;22.32;15.10;;;;;;;5.93;61.89;100479.13;1724000;83;21343;-56
2021/01/08 13:30:14;;;;;;;19.57;12.93;;;;;;;5.88;62.37;100473.80;1723457;82;21235;-55
2021/01/08 13:33:22;;;;;;;24.00;15.05;;;;;;;5.88;62.83;100475.98;1683482;84;21233;-55
2021/01/08 13:36:27;;;;;;;25.95;16.55;;;;;;;5.90;63.17;100473.12;1690746;84;21828;-55
2021/01/08 13:39:32;;;;;;;26.52;15.93;;;;;;;5.92;63.33;100467.05;1718075;82;21381;-55
2021/01/08 13:42:37;;;;;;;21.35;13.70;;;;;;;5.91;63.41;100465.35;1644640;86;21764;-55
2021/01/08 13:45:44;;;;;;;21.82;14.73;;;;;;;5.88;63.44;100465.64;1683690;84;21244;-55
2021/01/08 13:48:50;;;;;;;28.10;18.60;;;;;;;5.85;63.58;100465.94;1718677;82;21248;-56
2021/01/08 13:51:56;;;;;;;24.67;17.10;;;;;;;5.83;63.69;100473.36;1715519;83;21793;-56
2021/01/08 13:55:01;;;;;;;22.75;15.68;;;;;;;5.81;63.55;100472.60;1681515;84;21194;-55
2021/01/08 13:58:09;;;;;;;26.25;17.48;;;;;;;5.74;63.44;100480.47;1684202;83;21248;-55
2021/01/08 14:01:15;;;;;;;25.88;16.70;;;;;;;5.70;63.36;100479.54;1686234;85;21732;-55
2021/01/08 14:04:20;;;;;;;25.20;17.27;;;;;;;5.73;63.52;100471.11;1709162;83;21219;-54
2021/01/08 14:07:25;;;;;;;32.40;21.75;;;;;;;5.76;63.39;100481.68;1702928;82;21220;-55
2021/01/08 14:10:30;;;;;;;31.60;20.80;;;;;;;5.77;63.34;100483.41;1699542;83;21260;-55
2021/01/08 14:13:37;;;;;;;36.65;22.52;;;;;;;5.78;63.17;100481.05;1695677;83;21205;-56
2021/01/08 14:16:42;;;;;;;35.05;23.32;;;;;;;5.78;62.94;100479.69;1708566;83;21386;-56
2021/01/08 14:19:49;;;;;;;36.70;23.32;;;;;;;5.75;62.72;100486.27;1705995;83;21358;-56
2021/01/08 14:22:55;;;;;;;39.78;25.48;;;;;;;5.72;62.68;100490.61;1707779;83;21774;-55
2021/01/08 14:26:00;;;;;;;35.95;23.00;;;;;;;5.72;62.72;100486.53;1701729;83;21689;-56
2021/01/08 14:29:07;;;;;;;34.05;20.97;;;;;;;5.73;62.66;100492.83;1706454;82;21265;-55
2021/01/08 14:32:14;;;;;;;28.35;19.40;;;;;;;5.73;62.53;100486.91;1718733;82;21239;-56